createdAt,value
2018-08-16T00:02:20.972Z,17.31
2018-08-16T00:04:48.319Z,17.34
2018-08-16T00:07:15.646Z,17.38
2018-08-16T00:09:42.968Z,17.33
2018-08-16T00:12:10.316Z,17.20
2018-08-16T00:14:37.696Z,17.17
2018-08-16T00:17:05.732Z,17.19
2018-08-16T00:19:33.092Z,17.18
2018-08-16T00:22:00.437Z,17.11
2018-08-16T00:24:28.291Z,17.09
2018-08-16T00:26:55.772Z,17.06
2018-08-16T00:29:23.113Z,17.00
2018-08-16T00:31:51.151Z,16.96
2018-08-16T00:34:18.428Z,16.94
2018-08-16T00:36:45.868Z,16.90
2018-08-16T00:39:13.175Z,16.91
2018-08-16T00:41:40.451Z,16.92
2018-08-16T00:44:07.726Z,16.90
2018-08-16T00:46:35.038Z,16.90
2018-08-16T00:49:02.286Z,16.88
2018-08-16T00:51:29.923Z,16.89
2018-08-16T00:53:57.205Z,16.89
2018-08-16T00:56:24.435Z,16.85
2018-08-16T00:58:51.843Z,16.79
2018-08-16T01:01:19.253Z,16.76
2018-08-16T01:03:46.563Z,16.77
2018-08-16T01:06:13.803Z,16.75
2018-08-16T01:08:41.098Z,16.72
2018-08-16T01:11:08.492Z,16.73
2018-08-16T01:13:35.790Z,16.67
2018-08-16T01:16:03.085Z,16.67
2018-08-16T01:18:30.473Z,16.61
2018-08-16T01:20:57.838Z,16.53
2018-08-16T01:23:25.238Z,16.56
2018-08-16T01:25:52.608Z,16.54
2018-08-16T01:28:19.915Z,16.54
2018-08-16T01:30:47.274Z,16.49
2018-08-16T01:33:14.552Z,16.50
2018-08-16T01:35:41.925Z,16.45
2018-08-16T01:38:09.194Z,16.47
2018-08-16T01:40:36.484Z,16.47
2018-08-16T01:43:03.747Z,16.42
2018-08-16T01:45:31.077Z,16.41
2018-08-16T01:47:58.399Z,16.41
2018-08-16T01:50:25.746Z,16.28
2018-08-16T01:52:53.001Z,16.26
2018-08-16T01:55:20.360Z,16.27
2018-08-16T01:57:48.180Z,16.24
2018-08-16T02:00:15.592Z,16.19
2018-08-16T02:02:42.883Z,16.19
2018-08-16T02:05:10.363Z,16.17
2018-08-16T02:07:37.628Z,16.15
2018-08-16T02:10:05.895Z,16.13
2018-08-16T02:12:33.193Z,16.10
2018-08-16T02:15:00.496Z,16.09
2018-08-16T02:17:27.758Z,16.07
2018-08-16T02:19:55.028Z,16.06
2018-08-16T02:22:22.436Z,16.03
2018-08-16T02:24:49.704Z,16.00
2018-08-16T02:27:16.937Z,15.96
2018-08-16T02:29:44.162Z,15.92
2018-08-16T02:32:11.367Z,15.89
2018-08-16T02:34:38.657Z,15.90
2018-08-16T02:37:06.009Z,15.96
2018-08-16T02:39:33.263Z,15.88
2018-08-16T02:42:00.553Z,15.83
2018-08-16T02:44:27.964Z,15.75
2018-08-16T02:46:55.214Z,15.76
2018-08-16T02:49:22.493Z,15.78
2018-08-16T02:51:49.838Z,15.81
2018-08-16T02:54:17.165Z,15.81
2018-08-16T02:56:44.500Z,15.85
2018-08-16T02:59:11.703Z,15.74
2018-08-16T03:01:40.424Z,15.73
2018-08-16T03:04:07.767Z,15.68
2018-08-16T03:06:35.176Z,15.73
2018-08-16T03:09:02.569Z,15.74
2018-08-16T03:11:29.827Z,15.73
2018-08-16T03:13:57.087Z,15.70
2018-08-16T03:16:24.427Z,15.72
2018-08-16T03:18:51.711Z,15.69
2018-08-16T03:21:19.029Z,15.73
2018-08-16T03:23:46.253Z,15.75
2018-08-16T03:26:13.578Z,15.65
2018-08-16T03:28:40.965Z,15.66
2018-08-16T03:31:08.251Z,15.61
2018-08-16T03:33:35.622Z,15.59
2018-08-16T03:36:02.952Z,15.55
2018-08-16T03:38:30.281Z,15.51
2018-08-16T03:40:57.619Z,15.44
2018-08-16T03:43:24.944Z,15.47
2018-08-16T03:45:52.230Z,15.46
2018-08-16T03:48:19.485Z,15.43
2018-08-16T03:50:46.857Z,15.45
2018-08-16T03:53:14.114Z,15.37
2018-08-16T03:55:41.414Z,15.20
2018-08-16T03:58:08.732Z,15.26
2018-08-16T04:00:36.121Z,15.29
2018-08-16T04:03:03.387Z,15.29
2018-08-16T04:05:30.711Z,15.28
2018-08-16T04:07:57.966Z,15.28
2018-08-16T04:10:25.236Z,15.29
2018-08-16T04:12:52.443Z,15.28
2018-08-16T04:15:19.731Z,15.27
2018-08-16T04:17:48.741Z,15.16
2018-08-16T04:20:16.041Z,15.14
2018-08-16T04:22:43.315Z,15.19
2018-08-16T04:25:10.593Z,15.17
2018-08-16T04:27:37.861Z,15.17
2018-08-16T04:30:05.549Z,15.22
2018-08-16T04:32:32.790Z,15.17
2018-08-16T04:35:00.031Z,15.18
2018-08-16T04:37:27.294Z,15.25
2018-08-16T04:39:54.575Z,15.27
2018-08-16T04:42:21.905Z,15.24
2018-08-16T04:44:49.175Z,15.25
2018-08-16T04:47:16.476Z,15.21
2018-08-16T04:49:43.729Z,15.27
2018-08-16T04:52:11.020Z,15.35
2018-08-16T04:54:38.272Z,15.37
2018-08-16T04:57:05.558Z,15.40
2018-08-16T04:59:32.837Z,15.40
2018-08-16T05:02:00.091Z,15.37
2018-08-16T05:04:27.353Z,15.32
2018-08-16T05:06:54.742Z,15.36
2018-08-16T05:09:22.084Z,15.33
2018-08-16T05:11:49.357Z,15.37
2018-08-16T05:14:16.657Z,15.39
2018-08-16T05:16:43.956Z,15.50
2018-08-16T05:19:12.076Z,15.58
2018-08-16T05:21:39.484Z,15.63
2018-08-16T05:24:06.798Z,15.68
2018-08-16T05:26:34.097Z,15.71
2018-08-16T05:29:01.528Z,15.82
2018-08-16T05:31:28.937Z,15.90
2018-08-16T05:33:56.277Z,15.99
2018-08-16T05:36:23.723Z,16.09
2018-08-16T05:38:51.002Z,16.27
2018-08-16T05:41:18.446Z,16.36
2018-08-16T05:43:45.739Z,16.33
2018-08-16T05:46:13.123Z,16.30
2018-08-16T05:48:40.476Z,16.39
2018-08-16T05:51:07.735Z,16.28
2018-08-16T05:53:35.316Z,16.40
2018-08-16T05:56:02.620Z,16.43
2018-08-16T05:58:29.933Z,16.37
2018-08-16T06:00:57.278Z,16.52
2018-08-16T06:03:24.540Z,16.80
2018-08-16T06:05:51.939Z,17.07
2018-08-16T06:08:19.122Z,17.24
2018-08-16T06:10:46.522Z,17.41
2018-08-16T06:13:13.838Z,17.46
2018-08-16T06:15:41.081Z,17.61
2018-08-16T06:18:08.532Z,17.80
2018-08-16T06:20:35.770Z,18.02
2018-08-16T06:23:03.066Z,18.11
2018-08-16T06:25:30.373Z,18.16
2018-08-16T06:27:57.708Z,18.13
2018-08-16T06:30:25.044Z,18.23
2018-08-16T06:32:52.302Z,18.36
2018-08-16T06:35:19.718Z,18.59
2018-08-16T06:37:47.096Z,18.85
2018-08-16T06:40:16.052Z,18.97
2018-08-16T06:42:43.641Z,19.11
2018-08-16T06:45:10.942Z,19.22
2018-08-16T06:47:38.301Z,19.41
2018-08-16T06:50:05.735Z,19.53
2018-08-16T06:52:33.196Z,19.67
2018-08-16T06:55:01.125Z,19.87
2018-08-16T06:57:28.473Z,20.01
2018-08-16T06:59:55.803Z,20.23
2018-08-16T07:02:23.038Z,20.38
2018-08-16T07:04:50.402Z,20.57
2018-08-16T07:07:17.578Z,20.73
2018-08-16T07:09:44.899Z,20.89
2018-08-16T07:12:12.303Z,21.05
2018-08-16T07:14:39.463Z,21.38
2018-08-16T07:17:06.817Z,21.73
2018-08-16T07:19:34.072Z,22.12
2018-08-16T07:22:01.430Z,22.54
2018-08-16T07:24:28.727Z,22.98
2018-08-16T07:26:56.079Z,23.39
2018-08-16T07:29:23.362Z,23.80
2018-08-16T07:31:50.557Z,24.17
2018-08-16T07:34:17.841Z,24.46
2018-08-16T07:36:45.067Z,24.65
2018-08-16T07:39:12.504Z,24.64
2018-08-16T07:41:39.838Z,24.76
2018-08-16T07:44:07.423Z,24.73
2018-08-16T07:46:34.756Z,24.48
2018-08-16T07:49:02.338Z,24.43
2018-08-16T07:51:29.895Z,24.29
2018-08-16T07:53:57.194Z,24.16
2018-08-16T07:56:24.591Z,24.01
2018-08-16T07:58:52.246Z,23.90
2018-08-16T08:01:19.626Z,23.94
2018-08-16T08:03:47.058Z,23.86
2018-08-16T08:06:15.007Z,23.89
2018-08-16T08:08:43.174Z,24.07
2018-08-16T08:11:10.523Z,24.28
2018-08-16T08:13:37.910Z,24.54
2018-08-16T08:16:05.346Z,24.71
2018-08-16T08:18:32.742Z,24.77
2018-08-16T08:21:00.079Z,24.77
2018-08-16T08:23:27.443Z,24.81
2018-08-16T08:25:54.905Z,24.85
2018-08-16T08:28:22.338Z,24.84
2018-08-16T08:30:50.043Z,25.00
2018-08-16T08:33:17.529Z,24.98
2018-08-16T08:35:55.134Z,25.20
2018-08-16T08:38:22.575Z,25.34
2018-08-16T08:40:49.893Z,25.20
2018-08-16T08:43:27.691Z,25.22
2018-08-16T08:45:55.160Z,25.28
2018-08-16T08:48:22.523Z,25.45
2018-08-16T08:50:49.954Z,25.55
2018-08-16T08:53:33.787Z,25.78
2018-08-16T08:56:12.709Z,25.88
2018-08-16T08:58:48.583Z,25.97
2018-08-16T09:01:16.405Z,26.08
2018-08-16T09:03:43.957Z,26.14
2018-08-16T09:06:11.832Z,26.13
2018-08-16T09:08:39.234Z,26.32
2018-08-16T09:11:18.986Z,26.47
2018-08-16T09:14:02.258Z,26.36
2018-08-16T09:16:34.003Z,26.31
2018-08-16T09:19:01.671Z,26.56
2018-08-16T09:21:29.662Z,26.37
2018-08-16T09:23:57.147Z,26.57
2018-08-16T09:26:30.320Z,26.96
2018-08-16T09:28:58.117Z,27.07
2018-08-16T09:31:37.070Z,27.15
2018-08-16T09:34:17.012Z,27.31
2018-08-16T09:36:44.308Z,26.96
2018-08-16T09:39:11.694Z,27.14
2018-08-16T09:41:39.408Z,27.24
2018-08-16T09:44:06.973Z,27.43
2018-08-16T09:47:02.175Z,27.42
2018-08-16T09:49:31.915Z,27.51
2018-08-16T09:51:59.396Z,27.46
2018-08-16T09:54:26.712Z,27.79
2018-08-16T09:56:54.788Z,27.74
2018-08-16T09:59:22.027Z,27.69
2018-08-16T10:01:49.456Z,27.69
2018-08-16T10:04:16.878Z,28.01
2018-08-16T10:06:44.597Z,27.90
2018-08-16T10:09:16.858Z,27.86
2018-08-16T10:11:44.760Z,27.92
2018-08-16T10:14:12.042Z,27.99
2018-08-16T10:16:39.482Z,28.31
2018-08-16T10:19:06.890Z,28.35
2018-08-16T10:21:34.452Z,28.22
2018-08-16T10:24:02.349Z,28.36
2018-08-16T10:26:29.663Z,28.42
2018-08-16T10:28:56.986Z,28.47
2018-08-16T10:31:24.323Z,28.14
2018-08-16T10:33:51.882Z,28.17
2018-08-16T10:36:19.470Z,28.41
2018-08-16T10:38:46.990Z,28.85
2018-08-16T10:41:14.290Z,28.79
2018-08-16T10:43:41.646Z,29.35
2018-08-16T10:46:08.885Z,29.64
2018-08-16T10:48:36.219Z,29.41
2018-08-16T10:51:03.578Z,29.69
2018-08-16T10:53:30.938Z,29.93
2018-08-16T10:55:59.034Z,29.79
2018-08-16T10:58:26.263Z,30.06
2018-08-16T11:00:53.565Z,29.72
2018-08-16T11:03:21.798Z,30.00
2018-08-16T11:05:49.191Z,30.16
2018-08-16T11:08:16.732Z,30.31
2018-08-16T11:13:11.901Z,30.39
2018-08-16T11:15:39.190Z,30.73
2018-08-16T11:18:06.766Z,31.04
2018-08-16T11:20:34.063Z,31.05
2018-08-16T11:23:01.390Z,31.21
2018-08-16T11:25:28.732Z,31.10
2018-08-16T11:27:56.132Z,31.49
2018-08-16T11:30:23.446Z,31.29
2018-08-16T11:32:50.724Z,31.50
2018-08-16T11:35:18.182Z,31.68
2018-08-16T11:37:45.546Z,31.29
2018-08-16T11:40:12.850Z,31.78
2018-08-16T11:42:40.240Z,32.06
2018-08-16T11:45:07.762Z,31.84
2018-08-16T11:47:35.108Z,31.94
2018-08-16T11:50:02.518Z,31.98
2018-08-16T11:52:29.844Z,31.78
2018-08-16T11:54:57.175Z,31.35
2018-08-16T11:57:24.549Z,31.12
2018-08-16T11:59:51.910Z,31.18
2018-08-16T12:02:19.205Z,31.22
2018-08-16T12:04:46.527Z,31.56
2018-08-16T12:07:13.775Z,31.94
2018-08-16T12:09:41.156Z,32.33
2018-08-16T12:12:08.497Z,32.41
2018-08-16T12:14:35.825Z,32.31
2018-08-16T12:17:03.528Z,31.98
2018-08-16T12:19:30.953Z,31.74
2018-08-16T12:21:58.231Z,32.01
2018-08-16T12:24:25.608Z,32.31
2018-08-16T12:26:52.922Z,31.58
2018-08-16T12:29:20.451Z,31.61
2018-08-16T12:31:47.768Z,31.38
2018-08-16T12:34:15.028Z,30.91
2018-08-16T12:36:42.381Z,31.11
2018-08-16T12:39:09.791Z,31.65
2018-08-16T12:41:37.070Z,31.86
2018-08-16T12:44:04.396Z,32.17
2018-08-16T12:46:31.767Z,31.81
2018-08-16T12:48:59.105Z,32.17
2018-08-16T12:51:26.407Z,32.18
2018-08-16T12:53:53.767Z,32.44
2018-08-16T12:56:21.063Z,32.77
2018-08-16T12:58:48.445Z,33.24
2018-08-16T13:01:15.756Z,33.93
2018-08-16T13:03:43.080Z,34.04
2018-08-16T13:06:10.478Z,33.76
2018-08-16T13:08:37.795Z,34.32
2018-08-16T13:11:05.560Z,34.91
2018-08-16T13:13:32.846Z,35.13
2018-08-16T13:16:00.087Z,35.16
2018-08-16T13:18:27.376Z,35.37
2018-08-16T13:20:54.735Z,35.84
2018-08-16T13:23:22.145Z,36.15
2018-08-16T13:25:49.483Z,36.05
2018-08-16T13:28:17.768Z,36.19
2018-08-16T13:30:45.081Z,36.16
2018-08-16T13:33:12.551Z,36.19
2018-08-16T13:35:39.909Z,35.43
2018-08-16T13:38:07.256Z,34.49
2018-08-16T13:40:35.263Z,34.59
2018-08-16T13:43:02.612Z,34.12
2018-08-16T13:45:29.983Z,33.97
2018-08-16T13:47:57.301Z,33.81
2018-08-16T13:50:24.847Z,33.16
2018-08-16T13:52:52.130Z,32.92
2018-08-16T13:55:19.432Z,33.49
2018-08-16T13:57:46.741Z,33.39
2018-08-16T14:00:14.010Z,32.71
2018-08-16T14:02:41.592Z,32.61
2018-08-16T14:05:09.123Z,32.79
2018-08-16T14:07:36.412Z,33.35
2018-08-16T14:10:04.339Z,33.36
2018-08-16T14:12:31.628Z,33.20
2018-08-16T14:14:58.958Z,32.88
2018-08-16T14:17:26.384Z,32.79
2018-08-16T14:19:53.890Z,33.91
2018-08-16T14:22:21.188Z,34.89
2018-08-16T14:24:48.460Z,35.75
2018-08-16T14:27:15.725Z,36.23
2018-08-16T14:29:43.030Z,36.35
2018-08-16T14:32:10.478Z,35.88
2018-08-16T14:34:37.761Z,35.12
2018-08-16T14:37:05.762Z,35.07
2018-08-16T14:39:33.017Z,35.34
2018-08-16T14:42:00.388Z,35.57
2018-08-16T14:44:27.712Z,35.97
2018-08-16T14:46:55.038Z,35.82
2018-08-16T14:49:22.467Z,35.40
2018-08-16T14:51:49.910Z,35.76
2018-08-16T14:54:17.212Z,35.59
2018-08-16T14:56:47.305Z,34.66
2018-08-16T14:59:15.876Z,34.90
2018-08-16T15:01:43.576Z,35.65
2018-08-16T15:04:10.925Z,36.19
2018-08-16T15:06:38.272Z,37.36
2018-08-16T15:09:08.588Z,38.08
2018-08-16T15:11:35.933Z,38.34
2018-08-16T15:14:03.265Z,38.33
2018-08-16T15:16:30.890Z,38.70
2018-08-16T15:18:58.344Z,38.38
2018-08-16T15:21:25.708Z,38.03
2018-08-16T15:23:53.022Z,37.86
2018-08-16T15:26:20.377Z,37.81
2018-08-16T15:28:47.795Z,37.33
2018-08-16T15:31:15.542Z,37.20
2018-08-16T15:33:43.332Z,37.31
2018-08-16T15:36:10.681Z,37.06
2018-08-16T15:38:37.990Z,36.47
2018-08-16T15:41:05.436Z,35.68
2018-08-16T15:43:33.751Z,35.68
2018-08-16T15:46:02.583Z,35.62
2018-08-16T15:48:30.521Z,35.44
2018-08-16T15:50:57.916Z,35.71
2018-08-16T15:53:25.298Z,35.71
2018-08-16T15:55:52.637Z,36.02
2018-08-16T15:58:19.988Z,35.94
2018-08-16T16:00:47.372Z,35.87
2018-08-16T16:03:14.667Z,35.93
2018-08-16T16:05:43.390Z,35.66
2018-08-16T16:08:10.847Z,35.93
2018-08-16T16:10:38.181Z,36.41
2018-08-16T16:13:05.628Z,36.57
2018-08-16T16:15:32.965Z,36.85
2018-08-16T16:18:00.322Z,37.13
2018-08-16T16:20:27.604Z,37.20
2018-08-16T16:22:54.882Z,36.95
2018-08-16T16:25:22.172Z,36.77
2018-08-16T16:27:49.471Z,36.80
2018-08-16T16:30:16.689Z,36.78
2018-08-16T16:32:44.030Z,36.76
2018-08-16T16:35:11.368Z,36.52
2018-08-16T16:37:38.593Z,36.43
2018-08-16T16:40:07.283Z,36.13
2018-08-16T16:42:34.557Z,36.02
2018-08-16T16:45:01.946Z,35.57
2018-08-16T16:47:29.217Z,35.62
2018-08-16T16:49:56.508Z,35.24
2018-08-16T16:52:23.975Z,35.03
2018-08-16T16:54:51.343Z,34.94
2018-08-16T16:57:18.659Z,34.84
2018-08-16T16:59:45.968Z,34.86
2018-08-16T17:02:13.285Z,34.78
2018-08-16T17:04:40.604Z,34.81
2018-08-16T17:07:07.944Z,34.69
2018-08-16T17:09:35.160Z,34.63
2018-08-16T17:12:02.464Z,34.37
2018-08-16T17:14:29.802Z,34.25
2018-08-16T17:16:57.112Z,33.62
2018-08-16T17:19:24.404Z,33.17
2018-08-16T17:21:51.707Z,32.89
2018-08-16T17:24:19.009Z,32.69
2018-08-16T17:26:46.266Z,32.36
2018-08-16T17:29:13.652Z,32.19
2018-08-16T17:31:40.966Z,31.97
2018-08-16T17:34:08.208Z,31.62
2018-08-16T17:36:35.465Z,31.54
2018-08-16T17:39:04.031Z,31.26
2018-08-16T17:41:31.285Z,31.15
2018-08-16T17:43:58.643Z,30.87
2018-08-16T17:46:25.990Z,30.83
2018-08-16T17:48:54.126Z,30.70
2018-08-16T17:51:21.428Z,30.55
2018-08-16T17:53:48.660Z,30.41
2018-08-16T17:56:15.953Z,30.32
2018-08-16T17:58:43.327Z,30.18
2018-08-16T18:01:10.635Z,30.12
2018-08-16T18:03:37.926Z,30.02
2018-08-16T18:06:05.318Z,29.98
2018-08-16T18:08:32.684Z,29.84
2018-08-16T18:11:00.001Z,29.76
2018-08-16T18:13:27.309Z,29.67
2018-08-16T18:15:54.613Z,29.57
2018-08-16T18:18:21.897Z,29.48
2018-08-16T18:20:49.277Z,29.40
2018-08-16T18:23:16.651Z,29.38
2018-08-16T18:25:44.216Z,29.32
2018-08-16T18:28:11.627Z,29.16
2018-08-16T18:30:39.027Z,29.01
2018-08-16T18:33:06.365Z,28.92
2018-08-16T18:35:33.647Z,28.85
2018-08-16T18:38:01.680Z,28.79
2018-08-16T18:40:28.887Z,28.60
2018-08-16T18:42:56.197Z,28.48
2018-08-16T18:45:23.483Z,28.32
2018-08-16T18:47:50.810Z,28.16
2018-08-16T18:50:18.075Z,28.11
2018-08-16T18:52:45.341Z,28.00
2018-08-16T18:55:12.612Z,27.83
2018-08-16T18:57:39.879Z,27.63
2018-08-16T19:00:07.912Z,27.57
2018-08-16T19:02:35.285Z,27.52
2018-08-16T19:05:02.664Z,27.41
2018-08-16T19:07:29.983Z,27.30
2018-08-16T19:09:57.219Z,27.12
2018-08-16T19:12:24.561Z,27.06
2018-08-16T19:14:51.782Z,27.03
2018-08-16T19:17:19.164Z,26.92
2018-08-16T19:19:46.506Z,26.77
2018-08-16T19:22:13.799Z,26.62
2018-08-16T19:24:41.098Z,26.57
2018-08-16T19:27:08.496Z,26.43
2018-08-16T19:29:35.758Z,26.39
2018-08-16T19:32:03.181Z,26.31
2018-08-16T19:34:30.509Z,26.16
2018-08-16T19:36:57.888Z,26.09
2018-08-16T19:39:25.319Z,26.03
2018-08-16T19:44:44.909Z,25.94
2018-08-16T19:47:12.313Z,25.90
2018-08-16T19:49:39.643Z,25.81
2018-08-16T19:52:06.955Z,25.72
2018-08-16T19:54:34.195Z,25.62
2018-08-16T19:57:01.631Z,25.54
2018-08-16T19:59:28.923Z,25.38
2018-08-16T20:01:56.314Z,25.37
2018-08-16T20:04:23.616Z,25.37
2018-08-16T20:06:50.861Z,25.29
2018-08-16T20:09:18.160Z,25.24
2018-08-16T20:11:45.507Z,25.20
2018-08-16T20:14:12.855Z,25.15
2018-08-16T20:16:40.155Z,24.94
2018-08-16T20:19:20.030Z,23.96
2018-08-16T20:21:47.651Z,24.65
2018-08-16T20:24:14.980Z,24.62
2018-08-16T20:26:42.240Z,24.57
2018-08-16T20:29:09.625Z,24.57
2018-08-16T20:31:36.893Z,24.52
2018-08-16T20:34:04.365Z,24.42
2018-08-16T20:36:31.633Z,24.40
2018-08-16T20:38:58.915Z,24.38
2018-08-16T20:41:26.188Z,24.32
2018-08-16T20:43:53.631Z,24.31
2018-08-16T20:46:20.955Z,24.21
2018-08-16T20:48:48.394Z,24.17
2018-08-16T20:51:15.742Z,24.10
2018-08-16T20:53:43.071Z,24.02
2018-08-16T20:56:10.376Z,23.91
2018-08-16T20:58:37.703Z,23.86
2018-08-16T21:01:05.283Z,23.82
2018-08-16T21:03:32.522Z,23.78
2018-08-16T21:05:59.850Z,23.74
2018-08-16T21:08:27.114Z,23.68
2018-08-16T21:10:54.413Z,23.65
2018-08-16T21:13:21.672Z,23.60
2018-08-16T21:15:48.973Z,23.45
2018-08-16T21:18:16.256Z,23.47
2018-08-16T21:20:43.603Z,23.46
2018-08-16T21:23:11.058Z,23.30
2018-08-16T21:25:38.425Z,23.20
2018-08-16T21:28:05.915Z,23.22
2018-08-16T21:30:33.355Z,23.14
2018-08-16T21:33:03.725Z,23.15
2018-08-16T21:35:31.079Z,23.12
2018-08-16T21:37:58.374Z,23.04
2018-08-16T21:40:25.697Z,22.98
2018-08-16T21:42:53.046Z,22.93
2018-08-16T21:45:20.348Z,22.89
2018-08-16T21:47:47.724Z,22.94
2018-08-16T21:50:14.981Z,22.72
2018-08-16T21:52:42.565Z,22.72
2018-08-16T21:55:09.884Z,22.71
2018-08-16T21:57:37.245Z,22.66
2018-08-16T22:00:06.027Z,22.48
2018-08-16T22:02:33.293Z,22.34
2018-08-16T22:05:00.596Z,22.38
2018-08-16T22:08:04.796Z,22.38
2018-08-16T22:10:32.425Z,22.32
2018-08-16T22:13:00.070Z,22.28
2018-08-16T22:15:27.476Z,22.02
2018-08-16T22:20:47.484Z,22.14
2018-08-16T22:23:14.717Z,22.11
2018-08-16T22:25:42.042Z,22.08
2018-08-16T22:28:09.354Z,21.99
2018-08-16T22:30:36.763Z,21.99
2018-08-16T22:33:04.134Z,21.82
2018-08-16T22:35:31.420Z,21.83
2018-08-16T22:37:58.780Z,21.85
2018-08-16T22:40:26.093Z,21.84
2018-08-16T22:42:53.436Z,21.77
2018-08-16T22:45:20.794Z,21.62
2018-08-16T22:47:48.058Z,21.52
2018-08-16T22:50:15.440Z,21.37
2018-08-16T22:52:42.777Z,21.29
2018-08-16T22:55:10.105Z,21.30
2018-08-16T22:57:37.404Z,21.36
2018-08-16T23:00:05.885Z,20.95
2018-08-16T23:02:33.128Z,20.88
2018-08-16T23:05:00.537Z,20.97
2018-08-16T23:07:27.766Z,21.07
2018-08-16T23:09:55.233Z,21.15
2018-08-16T23:12:22.551Z,21.01
2018-08-16T23:14:49.836Z,21.03
2018-08-16T23:17:17.064Z,21.04
2018-08-16T23:19:44.300Z,20.87
2018-08-16T23:25:04.409Z,20.65
2018-08-16T23:27:31.741Z,20.85
2018-08-16T23:29:59.053Z,20.78
2018-08-16T23:32:26.472Z,20.81
2018-08-16T23:34:53.818Z,20.85
2018-08-16T23:37:21.290Z,20.83
2018-08-16T23:39:48.568Z,20.79
2018-08-16T23:42:16.390Z,20.84
2018-08-16T23:44:43.777Z,20.86
2018-08-16T23:47:11.097Z,20.88
2018-08-16T23:49:38.367Z,20.89
2018-08-16T23:52:05.685Z,20.88
2018-08-16T23:54:32.890Z,20.61
2018-08-16T23:59:52.794Z,20.39
